Time;durP1;ratioP1;P1;durP2;ratioP2;P2;SDS_P1;SDS_P2;PMS_P1;PMS_P2;Temp;Humidity;BMP_temperature;BMP_pressure;BME280_temperature;BME280_humidity;BME280_pressure;Samples;Min_cycle;Max_cycle;Signal;HPM_P1;HPM_P2
2022/07/10 00:00:21;;;;;;;;;0.00;0.00;;;;;17.54;54.17;102794.28;5021067;28;8841;-65
2022/07/10 00:02:47;;;;;;;;;0.00;0.00;;;;;17.54;54.21;102788.84;5028054;28;9515;-65
2022/07/10 00:05:14;;;;;;;;;3.75;1.00;;;;;17.46;53.95;102797.13;5021990;28;8828;-65
2022/07/10 00:07:46;;;;;;;;;0.00;0.00;;;;;17.42;53.67;102783.09;5010879;28;8820;-66
2022/07/10 00:10:12;;;;;;;;;0.25;0.25;;;;;17.43;53.45;102782.03;5016850;28;9524;-65
2022/07/10 00:12:39;;;;;;;;;0.75;0.75;;;;;17.42;53.57;102785.81;5026400;28;8858;-64
2022/07/10 00:15:07;;;;;;;;;0.00;0.00;;;;;17.40;53.47;102776.97;5029031;28;8849;-65
2022/07/10 00:17:33;;;;;;;;;0.00;0.00;;;;;17.44;53.63;102782.88;5030114;28;8810;-65
2022/07/10 00:20:00;;;;;;;;;1.00;1.00;;;;;17.47;53.47;102783.34;5019141;28;8859;-65
2022/07/10 00:22:26;;;;;;;;;0.25;0.25;;;;;17.48;53.44;102782.28;5014933;28;9628;-65
2022/07/10 00:24:53;;;;;;;;;1.25;0.75;;;;;17.48;53.20;102786.91;5017488;28;8833;-65
2022/07/10 00:27:19;;;;;;;;;0.50;0.00;;;;;17.44;53.17;102780.16;5027599;28;8868;-66
2022/07/10 00:29:46;;;;;;;;;0.00;0.00;;;;;17.43;52.98;102776.59;5020283;28;8841;-66
2022/07/10 00:32:12;;;;;;;;;2.00;0.75;;;;;17.34;53.21;102780.47;5024487;28;8860;-66
2022/07/10 00:34:39;;;;;;;;;0.00;0.00;;;;;17.35;53.64;102784.03;5029127;28;8826;-66
2022/07/10 00:37:05;;;;;;;;;0.00;0.00;;;;;17.32;53.79;102785.25;5030629;28;8837;-65
2022/07/10 00:39:32;;;;;;;;;0.75;0.00;;;;;17.34;53.66;102779.59;5014081;28;8891;-64
2022/07/10 00:42:09;;;;;;;;;2.00;1.00;;;;;17.30;53.88;102773.72;5022582;28;8838;-65
2022/07/10 00:44:36;;;;;;;;;0.75;0.25;;;;;17.21;54.77;102778.41;5027480;28;8861;-64
2022/07/10 00:47:04;;;;;;;;;0.75;0.75;;;;;17.23;54.70;102772.81;5027160;28;8848;-64
2022/07/10 00:49:35;;;;;;;;;0.50;0.50;;;;;17.23;55.13;102779.09;5031102;28;9565;-64
2022/07/10 00:52:05;;;;;;;;;0.00;0.00;;;;;17.21;55.13;102775.69;5033672;28;8814;-64
2022/07/10 00:54:33;;;;;;;;;0.25;0.25;;;;;17.18;55.35;102767.94;5030692;28;9636;-64
2022/07/10 00:57:03;;;;;;;;;1.00;0.00;;;;;17.14;55.51;102769.34;5017230;28;8867;-65
2022/07/10 00:59:29;;;;;;;;;0.50;0.50;;;;;17.04;55.91;102776.97;5023508;28;8989;-64
2022/07/10 01:01:56;;;;;;;;;0.00;0.00;;;;;17.02;56.46;102777.16;5025933;28;8826;-64
2022/07/10 01:04:23;;;;;;;;;3.50;1.00;;;;;17.00;56.35;102771.03;5021163;28;8841;-64
2022/07/10 01:06:50;;;;;;;;;0.00;0.00;;;;;16.96;56.85;102763.47;5032210;28;8826;-64
2022/07/10 01:09:17;;;;;;;;;1.00;1.00;;;;;16.93;56.80;102763.81;5031542;28;8813;-66
2022/07/10 01:11:43;;;;;;;;;1.00;0.75;;;;;16.93;56.78;102761.94;5031596;28;8844;-65
2022/07/10 01:14:10;;;;;;;;;1.75;0.75;;;;;16.94;56.91;102751.94;5021068;28;8928;-65
2022/07/10 01:16:37;;;;;;;;;0.50;0.00;;;;;16.93;56.97;102742.91;5031615;28;8908;-65
2022/07/10 01:19:03;;;;;;;;;2.00;0.25;;;;;16.95;57.10;102753.63;5028406;28;8950;-65
2022/07/10 01:21:33;;;;;;;;;1.00;1.00;;;;;16.94;57.16;102758.22;5013208;28;9543;-65
2022/07/10 01:24:03;;;;;;;;;1.00;1.00;;;;;16.90;57.22;102754.19;5028121;28;8841;-64
2022/07/10 01:26:30;;;;;;;;;1.00;0.75;;;;;16.88;57.35;102755.41;5014234;28;8994;-64
2022/07/10 01:28:56;;;;;;;;;0.25;0.25;;;;;16.89;57.49;102749.75;5020178;28;8907;-64
2022/07/10 01:31:26;;;;;;;;;0.00;0.00;;;;;16.86;57.66;102747.44;5027366;28;8937;-64
2022/07/10 01:33:54;;;;;;;;;1.00;1.00;;;;;16.88;57.22;102744.53;5032819;28;8830;-64
2022/07/10 01:36:22;;;;;;;;;0.75;0.75;;;;;16.86;57.51;102741.16;5030739;28;8846;-64
2022/07/10 01:38:51;;;;;;;;;0.00;0.00;;;;;16.88;57.43;102749.97;5032554;28;8838;-64
2022/07/10 01:41:17;;;;;;;;;0.00;0.00;;;;;16.87;57.49;102743.69;5025274;28;8840;-64
2022/07/10 01:43:44;;;;;;;;;1.00;0.00;;;;;16.86;57.29;102742.00;5021676;28;9844;-64
2022/07/10 01:46:12;;;;;;;;;0.50;0.00;;;;;16.88;57.42;102730.91;5028530;28;9008;-64
2022/07/10 01:48:39;;;;;;;;;0.75;0.75;;;;;16.92;57.18;102732.22;5025009;28;8844;-64
2022/07/10 01:51:07;;;;;;;;;0.75;0.75;;;;;16.90;57.13;102735.16;5031604;28;8829;-64
2022/07/10 01:53:34;;;;;;;;;0.00;0.00;;;;;16.86;57.27;102724.84;5030336;28;8960;-65
2022/07/10 01:56:04;;;;;;;;;1.75;1.75;;;;;16.82;57.33;102735.25;5024382;28;8826;-65
2022/07/10 01:58:31;;;;;;;;;0.00;0.00;;;;;16.85;57.44;102723.13;5018030;28;8887;-65
2022/07/10 02:00:57;;;;;;;;;0.00;0.00;;;;;16.88;57.25;102715.44;5025910;28;9888;-64
2022/07/10 02:06:09;;;;;;;;;1.25;1.00;;;;;16.87;57.68;102713.75;5027490;28;8992;-64
2022/07/10 02:08:35;;;;;;;;;0.00;0.00;;;;;16.87;56.97;102711.03;5016627;28;8910;-64
2022/07/10 02:11:02;;;;;;;;;2.00;0.00;;;;;16.90;57.11;102713.38;5037556;28;8836;-64
2022/07/10 02:13:29;;;;;;;;;0.75;0.00;;;;;16.92;57.02;102711.31;5012328;28;8993;-64
2022/07/10 02:15:56;;;;;;;;;0.00;0.00;;;;;16.93;57.02;102712.97;5020717;28;8844;-65
2022/07/10 02:18:22;;;;;;;;;1.00;1.00;;;;;16.84;57.03;102707.84;5026848;28;8947;-65
2022/07/10 02:20:50;;;;;;;;;0.00;0.00;;;;;16.87;56.75;102704.75;5026234;28;9463;-65
2022/07/10 02:23:16;;;;;;;;;0.00;0.00;;;;;16.84;57.09;102707.84;5032487;28;8830;-65
2022/07/10 02:25:43;;;;;;;;;0.00;0.00;;;;;16.80;56.87;102707.38;5032072;28;8826;-66
2022/07/10 02:28:10;;;;;;;;;0.00;0.00;;;;;16.80;56.84;102710.94;5026896;28;8831;-66
2022/07/10 02:30:37;;;;;;;;;0.00;0.00;;;;;16.80;56.84;102708.22;5023283;28;8826;-65
2022/07/10 02:33:03;;;;;;;;;0.00;0.00;;;;;16.86;57.06;102713.97;5025309;28;8832;-65
2022/07/10 02:35:30;;;;;;;;;0.00;0.00;;;;;16.87;56.49;102715.63;5016595;28;8918;-65
2022/07/10 02:37:56;;;;;;;;;1.00;0.00;;;;;16.89;56.75;102727.16;5021978;28;8846;-65
2022/07/10 02:40:23;;;;;;;;;1.50;0.00;;;;;16.86;56.26;102713.97;5031429;28;8899;-65
2022/07/10 02:42:49;;;;;;;;;0.75;0.75;;;;;16.85;56.23;102714.97;5019721;28;8866;-65
2022/07/10 02:45:16;;;;;;;;;0.75;0.75;;;;;16.79;56.49;102719.31;5022615;28;8841;-65
2022/07/10 02:47:42;;;;;;;;;0.00;0.00;;;;;16.73;56.92;102712.75;5032149;28;8830;-66
2022/07/10 02:50:09;;;;;;;;;0.00;0.00;;;;;16.75;56.83;102710.69;5022051;28;8841;-65
2022/07/10 02:52:35;;;;;;;;;1.00;1.00;;;;;16.79;56.75;102714.72;5023456;28;8842;-65
2022/07/10 02:55:02;;;;;;;;;1.00;1.00;;;;;16.79;56.79;102711.97;5025507;28;8856;-65
2022/07/10 02:57:28;;;;;;;;;0.00;0.00;;;;;16.83;56.90;102704.28;5025778;28;8826;-65
2022/07/10 02:59:55;;;;;;;;;1.00;0.50;;;;;16.82;56.70;102713.50;5030863;28;8814;-65
2022/07/10 03:02:21;;;;;;;;;0.00;0.00;;;;;16.82;56.91;102709.94;5018105;28;8971;-65
2022/07/10 03:04:47;;;;;;;;;1.00;1.00;;;;;16.86;56.48;102698.47;5014331;28;8817;-66
2022/07/10 03:07:14;;;;;;;;;0.00;0.00;;;;;16.88;56.42;102699.13;5025929;28;9540;-65
2022/07/10 03:09:40;;;;;;;;;1.00;1.00;;;;;16.86;56.54;102703.91;5012070;28;8868;-66
2022/07/10 03:12:07;;;;;;;;;0.00;0.00;;;;;16.85;56.48;102704.94;5031689;28;8848;-64
2022/07/10 03:14:33;;;;;;;;;0.75;0.75;;;;;16.82;56.83;102697.19;5031792;28;8810;-65
2022/07/10 03:17:00;;;;;;;;;0.00;0.00;;;;;16.78;57.28;102696.72;5018140;28;8943;-66
2022/07/10 03:19:26;;;;;;;;;0.00;0.00;;;;;16.81;56.99;102692.75;5028791;28;8848;-66
2022/07/10 03:21:53;;;;;;;;;0.00;0.00;;;;;16.85;57.05;102704.09;5022818;28;8949;-65
2022/07/10 03:24:20;;;;;;;;;0.00;0.00;;;;;16.90;56.71;102698.94;5013369;28;8838;-65
2022/07/10 03:26:46;;;;;;;;;1.00;1.00;;;;;16.89;56.84;102706.22;5029845;28;8883;-66
2022/07/10 03:29:12;;;;;;;;;1.00;1.00;;;;;16.83;57.03;102703.44;5020444;28;8849;-66
2022/07/10 03:31:39;;;;;;;;;0.50;0.50;;;;;16.78;57.56;102704.03;5024878;28;8833;-66
2022/07/10 03:34:05;;;;;;;;;1.75;1.00;;;;;16.81;57.75;102703.63;5029117;28;8826;-65
2022/07/10 03:36:32;;;;;;;;;0.50;0.50;;;;;16.84;57.46;102695.09;5030050;28;8826;-65
2022/07/10 03:38:58;;;;;;;;;0.00;0.00;;;;;16.82;57.74;102678.13;5011993;28;8840;-65
2022/07/10 03:41:25;;;;;;;;;0.25;0.25;;;;;16.79;57.80;102690.22;5015504;28;8818;-65
2022/07/10 03:43:51;;;;;;;;;0.25;0.25;;;;;16.80;57.57;102685.63;5027563;28;8934;-66
2022/07/10 03:46:17;;;;;;;;;2.00;1.25;;;;;16.83;57.69;102687.13;5025104;28;8844;-65
2022/07/10 03:48:44;;;;;;;;;0.00;0.00;;;;;16.86;57.71;102675.88;5012968;28;8833;-65
2022/07/10 03:51:10;;;;;;;;;0.00;0.00;;;;;16.81;58.23;102679.16;5016253;28;8838;-65
2022/07/10 03:53:37;;;;;;;;;2.00;0.25;;;;;16.83;57.78;102682.53;5025766;28;8837;-64
2022/07/10 03:56:04;;;;;;;;;0.00;0.00;;;;;16.86;57.77;102686.75;5017464;28;8849;-65
2022/07/10 03:58:31;;;;;;;;;0.00;0.00;;;;;16.84;58.18;102678.78;5030296;28;8945;-65
2022/07/10 04:00:57;;;;;;;;;0.00;0.00;;;;;16.78;58.34;102676.81;5022085;28;8868;-65
2022/07/10 04:03:24;;;;;;;;;1.25;1.00;;;;;16.72;58.32;102678.38;5029686;28;8862;-65
2022/07/10 04:05:50;;;;;;;;;1.00;0.00;;;;;16.74;58.83;102679.09;5030416;28;8977;-65
2022/07/10 04:08:16;;;;;;;;;2.25;2.25;;;;;16.76;58.69;102681.59;5031699;28;8841;-64
2022/07/10 04:10:43;;;;;;;;;0.00;0.00;;;;;16.70;58.69;102679.63;5020924;28;8940;-65
2022/07/10 04:13:09;;;;;;;;;1.50;1.50;;;;;16.63;59.14;102678.69;5025288;28;8841;-65
2022/07/10 04:15:36;;;;;;;;;1.00;1.00;;;;;16.62;59.13;102677.84;5029130;28;8846;-64
2022/07/10 04:18:02;;;;;;;;;1.25;0.25;;;;;16.62;59.34;102671.56;5030849;28;8933;-65
2022/07/10 04:20:29;;;;;;;;;0.00;0.00;;;;;16.62;59.46;102680.56;5024445;28;8988;-65
2022/07/10 04:22:56;;;;;;;;;0.00;0.00;;;;;16.69;59.27;102675.19;5030154;28;8842;-64
2022/07/10 04:25:23;;;;;;;;;1.25;0.00;;;;;16.75;59.20;102680.75;5019187;28;9640;-65
2022/07/10 04:27:49;;;;;;;;;1.00;0.75;;;;;16.80;59.13;102677.47;5021564;28;8881;-65
2022/07/10 04:30:16;;;;;;;;;2.50;1.00;;;;;16.83;59.25;102678.97;5024568;28;8848;-65
2022/07/10 04:32:42;;;;;;;;;0.00;0.00;;;;;16.86;59.11;102678.59;5019788;28;8824;-65
2022/07/10 04:35:08;;;;;;;;;1.50;0.00;;;;;16.83;58.99;102676.25;5013130;28;8821;-66
2022/07/10 04:37:35;;;;;;;;;1.00;0.75;;;;;16.80;59.48;102677.47;5028465;28;8864;-65
2022/07/10 04:40:02;;;;;;;;;0.00;0.00;;;;;16.75;59.51;102677.19;5017070;28;9535;-65
2022/07/10 04:42:28;;;;;;;;;3.25;1.00;;;;;16.71;59.53;102678.59;5013507;28;8898;-65
2022/07/10 04:44:55;;;;;;;;;0.75;0.75;;;;;16.69;59.92;102691.50;5027408;28;8941;-65
2022/07/10 04:47:22;;;;;;;;;1.00;1.00;;;;;16.66;60.03;102687.31;5027278;28;8834;-65
2022/07/10 04:49:48;;;;;;;;;1.00;1.00;;;;;16.66;59.99;102687.31;5025863;28;8817;-65
2022/07/10 04:52:15;;;;;;;;;2.00;2.00;;;;;16.68;60.36;102689.84;5011259;28;8857;-65
2022/07/10 04:54:41;;;;;;;;;1.00;1.00;;;;;16.68;60.23;102687.94;5020614;28;8845;-65
2022/07/10 04:57:08;;;;;;;;;1.00;1.00;;;;;16.73;60.05;102687.41;5018841;28;8848;-67
2022/07/10 04:59:34;;;;;;;;;1.00;1.00;;;;;16.73;60.30;102687.41;5018680;28;8863;-65
2022/07/10 05:02:00;;;;;;;;;1.25;1.25;;;;;16.72;60.58;102686.53;5015231;28;8915;-65
2022/07/10 05:04:27;;;;;;;;;0.00;0.00;;;;;16.72;60.10;102685.69;5032140;28;8849;-66
2022/07/10 05:06:54;;;;;;;;;0.50;0.50;;;;;16.73;60.36;102681.97;5019995;28;8888;-65
2022/07/10 05:09:20;;;;;;;;;1.00;1.00;;;;;16.73;60.15;102685.56;5016239;28;8838;-64
2022/07/10 05:11:47;;;;;;;;;1.00;0.00;;;;;16.74;60.20;102679.09;5024675;28;8910;-65
2022/07/10 05:14:13;;;;;;;;;1.25;1.25;;;;;16.73;60.09;102688.28;5026090;28;8895;-65
2022/07/10 05:16:40;;;;;;;;;2.00;2.00;;;;;16.74;60.43;102689.13;5028660;28;8838;-64
2022/07/10 05:19:06;;;;;;;;;1.00;0.00;;;;;16.73;60.23;102690.13;5033388;28;8818;-64
2022/07/10 05:21:33;;;;;;;;;1.00;1.00;;;;;16.71;60.63;102690.31;5021593;28;8928;-65
2022/07/10 05:23:59;;;;;;;;;2.00;1.00;;;;;16.70;60.76;102687.78;5034338;28;8900;-64
2022/07/10 05:26:25;;;;;;;;;0.25;0.25;;;;;16.74;60.39;102683.69;5015652;28;8820;-65
2022/07/10 05:28:52;;;;;;;;;0.25;0.25;;;;;16.70;60.70;102687.78;5019513;28;8967;-65
2022/07/10 05:31:18;;;;;;;;;1.00;1.00;;;;;16.71;61.03;102684.03;5023916;28;8828;-64
2022/07/10 05:33:45;;;;;;;;;1.00;1.00;;;;;16.73;61.06;102679.25;5013954;28;9555;-65
2022/07/10 05:36:11;;;;;;;;;1.00;1.00;;;;;16.75;60.80;102688.91;5014225;28;8829;-65
2022/07/10 05:38:38;;;;;;;;;1.00;1.00;;;;;16.76;60.65;102684.31;5027127;28;8876;-66
2022/07/10 05:41:05;;;;;;;;;0.25;0.25;;;;;16.77;60.71;102684.16;5016055;28;8828;-65
2022/07/10 05:43:31;;;;;;;;;2.00;1.25;;;;;16.74;60.72;102681.81;5024705;28;8850;-65
2022/07/10 05:45:58;;;;;;;;;0.00;0.00;;;;;16.75;60.97;102680.75;5033786;28;8915;-65
2022/07/10 05:48:25;;;;;;;;;3.25;1.00;;;;;16.72;61.02;102674.81;5031766;28;8908;-65
2022/07/10 05:50:52;;;;;;;;;1.25;1.00;;;;;16.78;61.10;102674.13;5016759;28;8845;-64
2022/07/10 05:53:19;;;;;;;;;1.00;1.00;;;;;16.79;60.92;102682.06;5030715;28;8840;-65
2022/07/10 05:55:48;;;;;;;;;0.75;0.75;;;;;16.79;60.93;102681.22;5015804;28;8857;-66
2022/07/10 05:58:15;;;;;;;;;2.75;1.25;;;;;16.78;60.71;102688.56;5022296;28;8857;-64
2022/07/10 06:00:43;;;;;;;;;1.50;1.50;;;;;16.77;60.96;102680.56;5020850;28;8838;-65
2022/07/10 06:03:10;;;;;;;;;1.00;1.00;;;;;16.78;61.07;102685.81;5027287;28;8842;-65
2022/07/10 06:05:36;;;;;;;;;0.00;0.00;;;;;16.86;60.81;102689.47;5027940;28;8825;-64
2022/07/10 06:08:03;;;;;;;;;1.00;1.00;;;;;16.88;60.69;102684.69;5031658;28;8822;-64
2022/07/10 06:10:30;;;;;;;;;1.00;1.00;;;;;16.90;60.60;102688.91;5023548;28;8818;-64
2022/07/10 06:12:56;;;;;;;;;2.00;1.00;;;;;16.86;60.69;102695.75;5027526;28;8871;-64
2022/07/10 06:15:23;;;;;;;;;0.25;0.25;;;;;16.84;61.05;102686.94;5029969;28;8830;-65
2022/07/10 06:17:49;;;;;;;;;0.75;0.75;;;;;16.84;60.64;102684.22;5020885;28;8859;-65
2022/07/10 06:20:16;;;;;;;;;0.50;0.50;;;;;16.83;60.50;102687.13;5024986;28;8815;-65
2022/07/10 06:22:42;;;;;;;;;0.00;0.00;;;;;16.81;60.86;102695.47;5021096;28;8833;-66
2022/07/10 06:25:09;;;;;;;;;2.00;1.00;;;;;16.79;60.78;102690.22;5028107;28;9544;-65
2022/07/10 06:27:36;;;;;;;;;1.25;1.00;;;;;16.81;60.37;102690.03;5020395;28;8824;-64
2022/07/10 06:30:03;;;;;;;;;0.75;0.75;;;;;16.83;60.54;102687.97;5015294;28;8940;-66
2022/07/10 06:32:29;;;;;;;;;0.25;0.25;;;;;16.88;60.77;102687.41;5018934;28;8836;-64
2022/07/10 06:34:56;;;;;;;;;0.75;0.75;;;;;16.91;60.45;102687.03;5028478;28;8819;-64
2022/07/10 06:37:23;;;;;;;;;1.00;1.00;;;;;16.91;60.50;102695.19;5015970;28;8814;-66
2022/07/10 06:39:49;;;;;;;;;0.50;0.50;;;;;16.89;60.62;102694.50;5027792;28;8896;-67
2022/07/10 06:42:16;;;;;;;;;1.25;0.25;;;;;16.90;60.96;102690.78;5012769;28;8935;-67
2022/07/10 06:44:47;;;;;;;;;0.75;0.75;;;;;16.89;60.88;102684.47;5028795;28;8821;-67
2022/07/10 06:50:05;;;;;;;;;0.25;0.25;;;;;16.88;60.51;102695.56;5025494;28;9787;-65
2022/07/10 06:52:36;;;;;;;;;1.00;1.00;;;;;16.90;60.73;102699.78;5011878;28;8971;-67
2022/07/10 06:55:03;;;;;;;;;3.00;1.25;;;;;16.91;60.83;102697.91;5023193;28;8836;-66
2022/07/10 06:57:30;;;;;;;;;0.75;0.75;;;;;16.95;60.67;102691.03;5014264;28;8954;-65
2022/07/10 06:59:56;;;;;;;;;0.75;0.75;;;;;16.93;61.07;102698.53;5027132;28;8818;-65
2022/07/10 07:02:23;;;;;;;;;3.00;1.00;;;;;16.97;60.83;102705.28;5025430;28;8876;-65
2022/07/10 07:04:50;;;;;;;;;2.25;2.25;;;;;16.93;60.81;102698.53;5022947;28;8980;-66
2022/07/10 07:07:16;;;;;;;;;1.00;1.00;;;;;16.91;60.48;102696.03;5030369;28;9016;-66
2022/07/10 07:09:50;;;;;;;;;0.00;0.00;;;;;16.94;60.39;102694.81;5030115;28;8818;-65
2022/07/10 07:12:20;;;;;;;;;0.00;0.00;;;;;17.01;60.35;102693.84;5021535;28;8846;-66
2022/07/10 07:14:46;;;;;;;;;1.00;1.00;;;;;17.06;60.41;102698.72;5026683;28;8818;-65
2022/07/10 07:17:20;;;;;;;;;2.75;1.00;;;;;17.11;60.01;102704.41;5010743;28;8914;-65
2022/07/10 07:25:18;;;;;;;;;0.75;0.75;;;;;17.20;60.02;102686.94;5030433;28;8848;-65
2022/07/10 07:27:45;;;;;;;;;1.25;1.00;;;;;17.26;59.93;102694.34;5021086;28;8975;-63
2022/07/10 07:30:16;;;;;;;;;3.00;2.00;;;;;17.31;59.76;102696.47;5022672;28;8842;-64
2022/07/10 07:32:45;;;;;;;;;1.00;1.00;;;;;17.35;59.79;102695.03;5020112;28;8895;-64
2022/07/10 07:35:15;;;;;;;;;1.00;1.00;;;;;17.38;59.87;102702.84;5024200;28;8949;-64
2022/07/10 07:37:44;;;;;;;;;1.00;1.00;;;;;17.39;59.58;102703.66;5028252;28;8869;-64
2022/07/10 07:40:12;;;;;;;;;0.00;0.00;;;;;17.37;59.68;102689.41;5023754;28;8848;-66
2022/07/10 07:42:40;;;;;;;;;0.25;0.25;;;;;17.38;59.86;102691.94;5026007;28;8822;-64
2022/07/10 07:45:08;;;;;;;;;1.00;1.00;;;;;17.41;59.64;102701.56;5030016;28;9024;-64
2022/07/10 07:47:55;;;;;;;;;1.50;0.50;;;;;17.34;58.92;102696.09;5027545;28;9528;-65
2022/07/10 07:50:31;;;;;;;;;1.00;1.00;;;;;17.32;59.21;102698.16;5016792;28;8922;-66
2022/07/10 07:52:59;;;;;;;;;1.75;1.00;;;;;17.38;59.54;102700.09;5019288;28;8922;-65
2022/07/10 07:55:27;;;;;;;;;1.00;1.00;;;;;17.50;59.49;102697.69;5025689;28;8900;-65
2022/07/10 07:57:55;;;;;;;;;0.00;0.00;;;;;17.63;59.11;102700.56;5029034;28;9598;-66
2022/07/10 08:00:24;;;;;;;;;2.50;1.00;;;;;17.72;58.92;102704.81;5020232;28;8992;-64
2022/07/10 08:02:52;;;;;;;;;0.25;0.25;;;;;17.76;58.74;102697.97;5025901;28;9011;-65
2022/07/10 08:05:19;;;;;;;;;0.25;0.25;;;;;17.78;58.94;102706.81;5020144;28;8871;-64
2022/07/10 08:07:49;;;;;;;;;1.00;1.00;;;;;17.83;59.07;102708.09;5022507;28;8830;-64
2022/07/10 08:10:17;;;;;;;;;1.00;1.00;;;;;17.85;58.67;102700.53;5022268;28;8872;-64
2022/07/10 08:12:47;;;;;;;;;1.00;1.00;;;;;17.87;58.15;102696.59;5028549;28;8818;-64
2022/07/10 08:15:16;;;;;;;;;1.50;1.50;;;;;17.83;57.83;102703.47;5015907;28;8910;-64
2022/07/10 08:17:47;;;;;;;;;1.25;1.25;;;;;17.83;58.24;102703.47;5010176;28;8924;-65
2022/07/10 08:20:13;;;;;;;;;3.00;1.25;;;;;17.91;58.37;102697.03;5019865;28;8915;-65
2022/07/10 08:22:41;;;;;;;;;0.75;0.75;;;;;17.99;58.26;102691.44;5024476;28;8890;-65
2022/07/10 08:25:09;;;;;;;;;0.50;0.50;;;;;18.08;58.19;102690.25;5021786;28;8828;-71
2022/07/10 08:27:36;;;;;;;;;0.50;0.50;;;;;18.15;57.46;102680.25;5029477;28;8818;-65
2022/07/10 08:30:03;;;;;;;;;1.00;1.00;;;;;18.20;57.87;102685.94;5024703;28;8842;-65
2022/07/10 08:32:30;;;;;;;;;0.75;0.75;;;;;18.22;57.66;102674.81;5029919;28;9465;-65
2022/07/10 08:34:56;;;;;;;;;0.75;0.75;;;;;18.30;57.56;102674.66;5028786;28;8857;-65
2022/07/10 08:37:23;;;;;;;;;0.00;0.00;;;;;18.35;57.43;102677.63;5029544;28;8822;-65
2022/07/10 08:39:49;;;;;;;;;1.50;1.00;;;;;18.42;58.48;102683.09;5024870;28;8821;-66
2022/07/10 08:42:17;;;;;;;;;1.00;1.00;;;;;18.51;57.02;102679.16;5025780;28;8834;-66
2022/07/10 08:44:44;;;;;;;;;1.00;1.00;;;;;18.58;56.68;102665.56;5029305;28;8925;-65
2022/07/10 08:47:13;;;;;;;;;0.75;0.25;;;;;18.57;56.85;102672.91;5027295;28;8876;-66
2022/07/10 08:49:46;;;;;;;;;1.00;1.00;;;;;18.66;56.87;102668.97;5028137;28;8834;-65
2022/07/10 08:52:17;;;;;;;;;1.00;1.00;;;;;18.74;56.75;102677.00;5031536;28;8822;-66
2022/07/10 08:54:44;;;;;;;;;1.00;1.00;;;;;18.80;56.41;102674.50;5026402;28;8843;-64
2022/07/10 08:57:11;;;;;;;;;0.75;0.75;;;;;18.82;56.43;102675.97;5029924;28;8830;-66
2022/07/10 08:59:37;;;;;;;;;0.25;0.25;;;;;18.82;56.60;102684.16;5028187;28;8857;-65
2022/07/10 09:02:04;;;;;;;;;1.00;1.00;;;;;18.84;56.43;102687.53;5028852;28;8821;-67
2022/07/10 09:04:30;;;;;;;;;0.75;0.75;;;;;18.85;56.16;102683.75;5032759;28;8830;-66
2022/07/10 09:06:57;;;;;;;;;1.00;1.00;;;;;18.79;56.26;102690.03;5032203;28;8937;-65
2022/07/10 09:09:27;;;;;;;;;1.00;1.00;;;;;18.71;56.18;102690.19;5027193;28;8881;-67
2022/07/10 09:11:57;;;;;;;;;1.00;1.00;;;;;18.66;56.67;102671.69;5015321;28;8825;-67
2022/07/10 09:14:27;;;;;;;;;1.00;1.00;;;;;18.68;56.28;102679.69;5013017;28;8935;-64
2022/07/10 09:17:01;;;;;;;;;1.75;1.25;;;;;18.68;56.47;102682.41;5030181;28;8834;-66
2022/07/10 09:19:29;;;;;;;;;2.00;2.00;;;;;18.68;56.49;102683.25;5032038;28;8846;-65
2022/07/10 09:22:06;;;;;;;;;2.25;2.00;;;;;18.67;56.71;102670.63;5023022;28;8930;-66
2022/07/10 09:24:41;;;;;;;;;0.25;0.25;;;;;18.70;56.28;102664.81;5018325;28;8826;-66
2022/07/10 09:27:09;;;;;;;;;2.50;1.00;;;;;18.77;56.19;102670.31;5031788;28;8907;-65
2022/07/10 09:29:51;;;;;;;;;2.00;1.00;;;;;18.82;56.13;102656.88;5022309;28;8826;-66
2022/07/10 09:32:18;;;;;;;;;1.50;1.50;;;;;18.84;56.08;102657.53;5031463;28;8846;-65
2022/07/10 09:34:49;;;;;;;;;2.00;2.00;;;;;18.86;56.44;102662.78;5030784;28;8911;-65
2022/07/10 09:37:27;;;;;;;;;3.00;2.50;;;;;18.91;56.12;102654.81;5021538;28;8833;-64
2022/07/10 09:40:03;;;;;;;;;2.25;2.00;;;;;18.95;55.63;102664.25;5028236;28;8822;-66
2022/07/10 09:42:38;;;;;;;;;1.50;1.50;;;;;19.00;55.50;102659.88;5023238;28;8865;-65
2022/07/10 09:45:13;;;;;;;;;0.75;0.75;;;;;19.01;55.30;102666.19;5021599;28;9669;-65
2022/07/10 09:47:41;;;;;;;;;1.00;0.25;;;;;19.02;55.24;102652.31;5028389;28;8819;-65
2022/07/10 09:50:29;;;;;;;;;1.75;1.75;;;;;19.05;55.15;102662.00;5020350;28;8834;-65
2022/07/10 09:53:06;;;;;;;;;1.25;1.00;;;;;19.08;54.63;102661.59;5029289;28;8810;-65
2022/07/10 09:55:35;;;;;;;;;1.00;1.00;;;;;19.09;54.38;102649.63;5028268;28;8906;-65
2022/07/10 09:58:06;;;;;;;;;0.25;0.25;;;;;19.15;54.54;102653.38;5027239;28;8834;-65
2022/07/10 10:00:37;;;;;;;;;1.25;1.00;;;;;19.25;53.91;102651.13;5015192;28;8840;-67
2022/07/10 10:03:07;;;;;;;;;0.75;0.75;;;;;19.30;53.26;102651.31;5030748;28;8826;-65
2022/07/10 10:05:42;;;;;;;;;1.00;1.00;;;;;19.33;53.08;102645.44;5029548;28;8842;-65
2022/07/10 10:08:21;;;;;;;;;1.00;1.00;;;;;19.42;53.25;102646.09;5016229;28;8874;-65
2022/07/10 10:10:49;;;;;;;;;1.00;1.00;;;;;19.47;52.83;102649.03;5028052;28;8822;-65
2022/07/10 10:13:19;;;;;;;;;0.75;0.75;;;;;19.53;52.63;102650.94;5012067;28;8947;-66
2022/07/10 10:15:48;;;;;;;;;2.00;1.25;;;;;19.62;52.62;102648.84;5022375;28;8823;-66
2022/07/10 10:18:20;;;;;;;;;1.50;1.50;;;;;19.69;52.04;102649.69;5023327;28;8861;-66
2022/07/10 10:20:48;;;;;;;;;1.00;1.00;;;;;19.71;51.97;102648.41;5029536;28;8899;-66
2022/07/10 10:23:22;;;;;;;;;1.75;1.75;;;;;19.71;51.93;102644.84;5027274;28;8841;-64
2022/07/10 10:25:50;;;;;;;;;2.00;1.00;;;;;19.70;51.97;102644.00;5013819;28;8863;-65
2022/07/10 10:28:23;;;;;;;;;0.00;0.00;;;;;19.74;52.09;102652.63;5027043;28;9023;-64
2022/07/10 10:30:53;;;;;;;;;0.25;0.25;;;;;19.82;52.12;102640.66;5030751;28;8880;-66
2022/07/10 10:33:32;;;;;;;;;1.25;1.25;;;;;19.84;51.42;102647.56;5022639;28;8836;-66
2022/07/10 10:36:05;;;;;;;;;1.00;1.00;;;;;19.84;51.23;102654.91;5023596;28;8838;-66
2022/07/10 10:38:51;;;;;;;;;0.75;0.75;;;;;19.83;51.05;102653.25;5021409;28;8904;-66
2022/07/10 10:41:38;;;;;;;;;1.75;1.00;;;;;19.81;51.08;102649.88;5023083;28;8853;-65
2022/07/10 10:44:15;;;;;;;;;1.75;1.75;;;;;19.81;51.11;102647.13;5030473;28;8846;-66
2022/07/10 10:46:56;;;;;;;;;1.25;1.25;;;;;19.80;50.82;102638.09;5019718;28;8836;-64
2022/07/10 10:49:25;;;;;;;;;1.00;1.00;;;;;19.86;51.63;102652.84;5019945;28;9507;-65
2022/07/10 10:52:03;;;;;;;;;0.75;0.75;;;;;19.93;50.27;102640.84;5021574;28;8840;-65
2022/07/10 10:54:47;;;;;;;;;1.25;1.25;;;;;19.90;49.09;102637.69;5020971;28;9562;-65
2022/07/10 10:57:15;;;;;;;;;0.75;0.75;;;;;19.84;48.72;102649.47;5029192;28;8838;-66
2022/07/10 10:59:53;;;;;;;;;1.50;1.50;;;;;19.92;49.20;102632.84;5022019;28;8853;-66
2022/07/10 11:02:34;;;;;;;;;1.00;1.00;;;;;20.10;48.98;102635.75;5025143;28;8976;-66
2022/07/10 11:07:59;;;;;;;;;0.00;0.00;;;;;20.22;48.16;102631.31;5022552;28;8900;-66
2022/07/10 11:10:26;;;;;;;;;1.00;1.00;;;;;20.30;48.55;102624.75;5023234;28;8822;-66
2022/07/10 11:12:58;;;;;;;;;1.00;1.00;;;;;20.42;48.28;102633.13;5021064;28;8845;-66
2022/07/10 11:15:25;;;;;;;;;0.00;0.00;;;;;20.50;47.87;102641.13;5019111;28;8810;-66
2022/07/10 11:17:52;;;;;;;;;1.00;1.00;;;;;20.49;47.69;102639.44;5021117;28;8836;-66
2022/07/10 11:20:20;;;;;;;;;2.00;1.00;;;;;20.51;47.57;102642.81;5021122;28;8818;-66
2022/07/10 11:23:17;;;;;;;;;1.50;1.50;;;;;20.53;47.51;102634.38;5018738;28;8817;-66
2022/07/10 11:26:01;;;;;;;;;2.00;0.50;;;;;20.53;47.56;102627.00;5024264;28;8930;-66
2022/07/10 11:28:54;;;;;;;;;1.50;1.00;;;;;20.65;47.44;102624.41;5010177;28;8864;-66
2022/07/10 11:31:23;;;;;;;;;1.33;1.00;;;;;20.69;47.78;102620.19;5011536;28;8830;-66
2022/07/10 11:33:52;;;;;;;;;1.50;1.50;;;;;20.77;47.62;102616.38;5025053;28;8829;-66
2022/07/10 11:36:26;;;;;;;;;0.50;0.50;;;;;20.77;46.96;102619.09;5012171;28;9527;-66
2022/07/10 11:38:58;;;;;;;;;3.00;1.25;;;;;20.81;47.14;102607.50;5021205;28;8838;-65
2022/07/10 11:41:25;;;;;;;;;1.50;1.25;;;;;20.98;47.47;102607.81;5030036;28;8976;-66
2022/07/10 11:43:54;;;;;;;;;1.00;1.00;;;;;21.10;46.70;102608.78;5026259;28;8824;-66
2022/07/10 11:46:23;;;;;;;;;1.00;1.00;;;;;21.05;46.39;102611.34;5022414;28;8834;-66
2022/07/10 11:48:54;;;;;;;;;0.25;0.25;;;;;20.99;46.78;102620.47;5026443;28;8857;-66
2022/07/10 11:51:22;;;;;;;;;1.25;0.75;;;;;20.95;46.86;102602.78;5030045;28;8818;-66
2022/07/10 11:53:54;;;;;;;;;1.00;1.00;;;;;20.94;47.14;102612.03;5026747;28;9532;-66